Time;durP1;ratioP1;P1;durP2;ratioP2;P2;SDS_P1;SDS_P2;PMS_P1;PMS_P2;Temp;Humidity;BMP_temperature;BMP_pressure;BME280_temperature;BME280_humidity;BME280_pressure;Samples;Min_cycle;Max_cycle;Signal;HPM_P1;HPM_P2
2021/01/20 00:02:04;;;;;;;33.05;23.73;;;;;;;;;;5091714;28;20093;-69
2021/01/20 00:04:30;;;;;;;30.63;20.08;;;;;;;;;;5092614;28;20432;-69
2021/01/20 00:06:56;;;;;;;31.40;21.98;;;;;;;;;;5093959;28;20047;-70
2021/01/20 00:09:23;;;;;;;35.08;21.85;;;;;;;;;;5092293;28;20044;-69
2021/01/20 00:11:49;;;;;;;32.70;22.33;;;;;;;;;;5090705;28;20044;-69
2021/01/20 00:14:16;;;;;;;33.00;21.05;;;;;;;;;;5091626;28;20062;-69
2021/01/20 00:16:43;;;;;;;28.27;20.67;;;;;;;;;;5093743;28;20105;-69
2021/01/20 00:19:10;;;;;;;34.03;21.30;;;;;;;;;;5093570;28;20487;-69
2021/01/20 00:21:37;;;;;;;33.95;22.27;;;;;;;;;;5091062;28;20036;-69
2021/01/20 00:24:04;;;;;;;27.92;20.55;;;;;;;;;;5091512;28;20147;-70
2021/01/20 00:26:30;;;;;;;32.88;20.60;;;;;;;;;;5091675;28;20079;-69
2021/01/20 00:28:56;;;;;;;28.25;20.25;;;;;;;;;;5090533;28;20479;-69
2021/01/20 00:31:22;;;;;;;32.25;22.25;;;;;;;;;;5090809;28;20770;-69
2021/01/20 00:33:49;;;;;;;30.45;20.85;;;;;;;;;;5091426;28;20032;-69
2021/01/20 00:36:16;;;;;;;27.30;18.85;;;;;;;;;;5094184;28;20039;-69
2021/01/20 00:38:42;;;;;;;33.92;19.80;;;;;;;;;;5091915;28;20097;-70
2021/01/20 00:41:08;;;;;;;29.10;19.17;;;;;;;;;;5090659;28;20035;-69
2021/01/20 00:43:34;;;;;;;26.70;17.80;;;;;;;;;;5090737;28;20036;-69
2021/01/20 00:46:01;;;;;;;28.20;17.55;;;;;;;;;;5090144;28;20055;-70
2021/01/20 00:48:27;;;;;;;34.30;20.83;;;;;;;;;;5091699;28;20036;-70
2021/01/20 00:50:54;;;;;;;28.17;17.73;;;;;;;;;;5091565;28;20414;-70
2021/01/20 00:53:20;;;;;;;28.77;17.27;;;;;;;;;;5090247;28;20115;-70
2021/01/20 00:55:47;;;;;;;34.85;20.33;;;;;;;;;;5092616;28;20052;-69
2021/01/20 00:58:13;;;;;;;28.15;16.73;;;;;;;;;;5090874;28;20051;-70
2021/01/20 01:00:39;;;;;;;27.40;15.98;;;;;;;;;;5089829;28;20480;-69
2021/01/20 01:03:06;;;;;;;25.63;17.27;;;;;;;;;;5085683;28;20075;-69
2021/01/20 01:05:33;;;;;;;24.30;15.20;;;;;;;;;;5089820;28;20047;-69
2021/01/20 01:08:00;;;;;;;28.25;16.73;;;;;;;;;;5089028;28;20044;-69
2021/01/20 01:10:26;;;;;;;25.38;17.38;;;;;;;;;;5092009;28;20126;-70
2021/01/20 01:12:52;;;;;;;27.90;16.25;;;;;;;;;;5090729;28;20085;-69
2021/01/20 01:15:19;;;;;;;31.88;17.60;;;;;;;;;;5089891;28;20139;-69
2021/01/20 01:17:45;;;;;;;26.20;17.75;;;;;;;;;;5090329;28;20178;-69
2021/01/20 01:20:12;;;;;;;30.60;18.73;;;;;;;;;;5090132;28;20040;-69
2021/01/20 01:22:39;;;;;;;26.38;17.30;;;;;;;;;;5090048;28;20063;-69
2021/01/20 01:25:08;;;;;;;28.67;15.52;;;;;;;;;;5092109;28;20101;-69
2021/01/20 01:27:34;;;;;;;30.45;17.95;;;;;;;;;;5093542;28;20336;-69
2021/01/20 01:30:00;;;;;;;28.83;17.08;;;;;;;;;;5089422;28;20544;-69
2021/01/20 01:32:27;;;;;;;23.65;16.00;;;;;;;;;;5093687;28;20495;-69
2021/01/20 01:34:53;;;;;;;25.02;16.08;;;;;;;;;;5091564;28;20043;-69
2021/01/20 01:37:20;;;;;;;26.13;16.30;;;;;;;;;;5094065;28;20086;-69
2021/01/20 01:39:46;;;;;;;23.75;15.50;;;;;;;;;;5094555;28;20066;-69
2021/01/20 01:42:12;;;;;;;34.03;16.48;;;;;;;;;;5095726;28;21241;-69
2021/01/20 01:44:57;;;;;;;24.25;15.48;;;;;;;;;;5098224;28;20031;-69
2021/01/20 01:47:24;;;;;;;26.67;16.50;;;;;;;;;;5094776;28;20062;-69
2021/01/20 01:49:50;;;;;;;28.13;15.98;;;;;;;;;;5093404;28;20052;-69
2021/01/20 01:52:17;;;;;;;22.33;15.50;;;;;;;;;;5093812;28;20078;-69
2021/01/20 01:54:45;;;;;;;26.98;16.05;;;;;;;;;;5093940;28;20051;-70
2021/01/20 01:57:12;;;;;;;28.77;15.38;;;;;;;;;;5097147;28;20090;-70
2021/01/20 01:59:38;;;;;;;25.83;15.00;;;;;;;;;;5076866;28;20036;-69
2021/01/20 02:02:04;;;;;;;26.67;15.48;;;;;;;;;;5094626;28;20043;-70
2021/01/20 02:04:31;;;;;;;25.60;16.20;;;;;;;;;;5091921;28;20048;-70
2021/01/20 02:06:57;;;;;;;29.20;15.90;;;;;;;;;;5093799;28;20151;-70
2021/01/20 02:09:24;;;;;;;24.75;16.63;;;;;;;;;;5093400;28;20515;-69
2021/01/20 02:12:07;;;;;;;29.45;16.67;;;;;;;;;;5095371;28;20048;-69
2021/01/20 02:14:43;;;;;;;28.02;17.23;;;;;;;;;;5094425;28;20040;-69
2021/01/20 02:17:12;;;;;;;24.02;15.00;;;;;;;;;;5092357;28;20585;-69
2021/01/20 02:19:50;;;;;;;31.70;18.40;;;;;;;;;;5093251;28;20032;-69
2021/01/20 02:22:39;;;;;;;25.90;16.40;;;;;;;;;;5092004;28;20127;-70
2021/01/20 02:25:12;;;;;;;31.95;18.02;;;;;;;;;;5092803;28;20094;-70
2021/01/20 02:27:48;;;;;;;31.95;18.48;;;;;;;;;;5095494;28;20175;-69
2021/01/20 02:30:15;;;;;;;34.10;18.23;;;;;;;;;;5093463;28;20480;-69
2021/01/20 02:32:42;;;;;;;33.50;19.27;;;;;;;;;;5092680;28;20046;-69
2021/01/20 02:35:10;;;;;;;29.13;17.90;;;;;;;;;;5093008;28;20044;-69
2021/01/20 02:37:37;;;;;;;34.03;18.83;;;;;;;;;;5092221;28;20115;-70
2021/01/20 02:40:04;;;;;;;32.78;18.08;;;;;;;;;;5092540;28;20484;-69
2021/01/20 02:42:30;;;;;;;31.23;18.58;;;;;;;;;;5093117;28;20085;-69
2021/01/20 02:44:57;;;;;;;32.67;20.40;;;;;;;;;;5092522;28;20048;-69
2021/01/20 02:47:24;;;;;;;37.13;19.77;;;;;;;;;;5091135;28;20540;-69
2021/01/20 02:49:50;;;;;;;47.10;23.00;;;;;;;;;;5094323;28;20040;-69
2021/01/20 02:52:31;;;;;;;36.90;22.73;;;;;;;;;;5091832;28;20463;-70
2021/01/20 02:54:58;;;;;;;29.23;20.38;;;;;;;;;;5094120;28;20032;-70
2021/01/20 02:57:24;;;;;;;34.95;18.95;;;;;;;;;;5094993;28;20051;-70
2021/01/20 02:59:54;;;;;;;31.98;18.65;;;;;;;;;;5092321;28;20040;-69
2021/01/20 03:02:20;;;;;;;31.42;20.90;;;;;;;;;;5074891;28;20052;-69
2021/01/20 03:04:47;;;;;;;29.90;19.80;;;;;;;;;;5089774;28;20036;-69
2021/01/20 03:07:14;;;;;;;32.40;21.80;;;;;;;;;;5090280;28;20149;-69
2021/01/20 03:09:40;;;;;;;37.03;20.30;;;;;;;;;;5094270;28;20040;-69
2021/01/20 03:12:07;;;;;;;34.90;20.23;;;;;;;;;;5092691;28;20082;-70
2021/01/20 03:14:33;;;;;;;33.95;21.65;;;;;;;;;;5091680;28;20058;-70
2021/01/20 03:17:00;;;;;;;32.25;21.00;;;;;;;;;;5093133;28;20063;-70
2021/01/20 03:19:26;;;;;;;38.35;21.10;;;;;;;;;;5089793;28;20089;-69
2021/01/20 03:21:52;;;;;;;38.15;22.58;;;;;;;;;;5091409;28;20074;-70
2021/01/20 03:24:19;;;;;;;36.40;22.33;;;;;;;;;;5092159;28;20048;-69
2021/01/20 03:26:45;;;;;;;37.67;21.08;;;;;;;;;;5091326;28;20078;-69
2021/01/20 03:29:11;;;;;;;35.85;21.42;;;;;;;;;;5088156;28;20054;-70
2021/01/20 03:31:37;;;;;;;31.10;20.63;;;;;;;;;;5093384;28;20048;-70
2021/01/20 03:34:04;;;;;;;28.83;19.42;;;;;;;;;;5092970;28;20217;-70
2021/01/20 03:36:30;;;;;;;31.85;19.70;;;;;;;;;;5092742;28;20502;-70
2021/01/20 03:38:57;;;;;;;36.90;21.10;;;;;;;;;;5090989;28;20036;-69
2021/01/20 03:41:23;;;;;;;30.92;20.30;;;;;;;;;;5091743;28;20082;-69
2021/01/20 03:43:49;;;;;;;31.13;19.77;;;;;;;;;;5092489;28;20384;-69
2021/01/20 03:46:15;;;;;;;33.70;19.85;;;;;;;;;;5094045;28;20040;-69
2021/01/20 03:48:42;;;;;;;29.25;20.23;;;;;;;;;;5094751;28;20040;-69
2021/01/20 03:51:08;;;;;;;29.20;20.10;;;;;;;;;;5092813;28;20040;-70
2021/01/20 03:53:34;;;;;;;33.60;20.85;;;;;;;;;;5095708;28;20043;-69
2021/01/20 03:56:00;;;;;;;27.75;20.00;;;;;;;;;;5092074;28;20048;-69
2021/01/20 03:58:27;;;;;;;32.58;21.65;;;;;;;;;;5094434;28;20075;-70
2021/01/20 04:00:53;;;;;;;30.25;19.30;;;;;;;;;;5091532;28;20090;-69
2021/01/20 04:03:19;;;;;;;31.40;19.95;;;;;;;;;;5096594;28;20391;-69
2021/01/20 04:05:46;;;;;;;33.50;21.27;;;;;;;;;;5093277;28;20118;-70
2021/01/20 04:08:12;;;;;;;30.30;20.63;;;;;;;;;;5092652;28;20048;-69
2021/01/20 04:10:38;;;;;;;29.70;21.75;;;;;;;;;;5091627;28;20032;-69
2021/01/20 04:13:04;;;;;;;31.38;19.80;;;;;;;;;;5092402;28;20330;-69
2021/01/20 04:15:31;;;;;;;37.42;22.25;;;;;;;;;;5091004;28;20463;-69
2021/01/20 04:17:57;;;;;;;30.23;21.15;;;;;;;;;;5090534;28;20032;-69
2021/01/20 04:20:23;;;;;;;32.45;20.90;;;;;;;;;;5091318;28;20140;-69
2021/01/20 04:22:50;;;;;;;35.25;22.45;;;;;;;;;;5091207;28;20594;-69
2021/01/20 04:25:16;;;;;;;34.35;22.65;;;;;;;;;;5089364;28;20051;-69
2021/01/20 04:27:42;;;;;;;39.45;21.65;;;;;;;;;;5093420;28;20182;-70
2021/01/20 04:30:09;;;;;;;39.55;24.08;;;;;;;;;;5088271;28;20050;-69
2021/01/20 04:32:36;;;;;;;37.42;24.73;;;;;;;;;;5090538;28;20510;-69
2021/01/20 04:35:02;;;;;;;34.45;23.40;;;;;;;;;;5094249;28;21077;-70
2021/01/20 04:37:28;;;;;;;37.25;23.15;;;;;;;;;;5092365;28;20051;-69
2021/01/20 04:39:55;;;;;;;36.65;23.85;;;;;;;;;;5090300;28;20143;-69
2021/01/20 04:42:21;;;;;;;34.80;24.10;;;;;;;;;;5093749;28;20098;-69
2021/01/20 04:44:48;;;;;;;31.73;21.38;;;;;;;;;;5093204;28;20040;-70
2021/01/20 04:47:15;;;;;;;36.25;22.65;;;;;;;;;;5091168;28;20043;-69
2021/01/20 04:49:44;;;;;;;33.00;22.90;;;;;;;;;;5090666;28;20038;-70
2021/01/20 04:52:15;;;;;;;35.90;22.23;;;;;;;;;;5090078;28;20524;-70
2021/01/20 04:54:42;;;;;;;33.30;22.85;;;;;;;;;;5090558;28;20048;-70
2021/01/20 04:57:09;;;;;;;37.53;24.38;;;;;;;;;;5094602;28;20176;-70
2021/01/20 04:59:35;;;;;;;45.80;25.17;;;;;;;;;;5089588;28;20043;-69
2021/01/20 05:02:01;;;;;;;35.13;23.48;;;;;;;;;;5090945;28;20095;-70
2021/01/20 05:04:28;;;;;;;38.40;24.42;;;;;;;;;;5085789;28;20044;-70
2021/01/20 05:06:54;;;;;;;32.38;21.92;;;;;;;;;;5091454;28;20063;-69
2021/01/20 05:09:20;;;;;;;28.55;20.42;;;;;;;;;;5093411;28;20055;-69
2021/01/20 05:11:47;;;;;;;37.85;22.90;;;;;;;;;;5097270;28;20050;-69
2021/01/20 05:14:15;;;;;;;32.70;21.65;;;;;;;;;;5096756;28;20047;-70
2021/01/20 05:16:42;;;;;;;35.83;21.30;;;;;;;;;;5101118;28;20056;-70
2021/01/20 05:19:08;;;;;;;28.70;21.55;;;;;;;;;;5097241;28;20400;-70
2021/01/20 05:21:35;;;;;;;32.55;22.80;;;;;;;;;;5096209;28;20044;-69
2021/01/20 05:24:19;;;;;;;32.75;21.38;;;;;;;;;;5095593;28;20036;-69
2021/01/20 05:26:46;;;;;;;34.67;21.05;;;;;;;;;;5102290;28;20091;-70
2021/01/20 05:29:13;;;;;;;29.75;21.45;;;;;;;;;;5096645;27;20569;-69
2021/01/20 05:31:39;;;;;;;34.38;21.92;;;;;;;;;;5098133;28;20040;-69
2021/01/20 05:34:06;;;;;;;29.45;19.55;;;;;;;;;;5094972;28;20051;-70
2021/01/20 05:36:32;;;;;;;28.02;18.52;;;;;;;;;;5096759;28;20036;-69
2021/01/20 05:38:58;;;;;;;29.60;20.45;;;;;;;;;;5096803;28;20032;-70
2021/01/20 05:41:27;;;;;;;30.08;18.88;;;;;;;;;;5096068;28;20044;-69
2021/01/20 05:43:55;;;;;;;23.85;17.45;;;;;;;;;;5096620;28;20108;-70
2021/01/20 05:46:32;;;;;;;29.40;20.08;;;;;;;;;;5098066;28;20040;-69
2021/01/20 05:48:58;;;;;;;29.75;19.10;;;;;;;;;;5096044;28;20453;-67
2021/01/20 05:51:25;;;;;;;25.98;17.10;;;;;;;;;;5096956;28;20136;-70
2021/01/20 05:53:53;;;;;;;29.35;19.08;;;;;;;;;;5097030;28;20044;-70
2021/01/20 05:56:26;;;;;;;32.17;19.63;;;;;;;;;;5100157;28;20411;-69
2021/01/20 05:58:52;;;;;;;26.40;18.17;;;;;;;;;;5098211;28;20088;-69
2021/01/20 06:01:19;;;;;;;26.02;18.20;;;;;;;;;;5102471;28;20036;-70
2021/01/20 06:03:46;;;;;;;27.27;17.17;;;;;;;;;;5092286;28;20089;-69
2021/01/20 06:06:13;;;;;;;26.30;18.33;;;;;;;;;;5098795;28;20043;-71
2021/01/20 06:08:39;;;;;;;25.60;18.10;;;;;;;;;;5104593;28;20078;-69
2021/01/20 06:11:06;;;;;;;24.73;16.15;;;;;;;;;;5090536;28;20036;-70
2021/01/20 06:13:33;;;;;;;26.38;18.10;;;;;;;;;;5091680;28;20060;-70
2021/01/20 06:16:01;;;;;;;28.15;17.77;;;;;;;;;;5091870;28;20044;-70
2021/01/20 06:18:30;;;;;;;24.55;15.30;;;;;;;;;;5090047;28;21255;-70
2021/01/20 06:20:56;;;;;;;23.73;16.33;;;;;;;;;;5090381;28;20105;-70
2021/01/20 06:23:24;;;;;;;27.83;16.73;;;;;;;;;;5084389;28;20463;-69
2021/01/20 06:25:53;;;;;;;25.42;16.15;;;;;;;;;;5096760;28;20051;-70
2021/01/20 06:28:20;;;;;;;25.38;16.50;;;;;;;;;;5094843;28;20111;-70
2021/01/20 06:30:49;;;;;;;20.77;15.68;;;;;;;;;;5106290;28;20055;-70
2021/01/20 06:33:16;;;;;;;26.33;16.38;;;;;;;;;;5101199;28;20047;-70
2021/01/20 06:35:43;;;;;;;22.85;16.35;;;;;;;;;;5085350;28;20048;-69
2021/01/20 06:38:35;;;;;;;24.00;16.52;;;;;;;;;;5096908;28;20122;-70
2021/01/20 06:41:05;;;;;;;30.10;16.90;;;;;;;;;;5093957;28;20071;-70
2021/01/20 06:43:35;;;;;;;28.10;16.55;;;;;;;;;;5101196;28;20040;-70
2021/01/20 06:46:19;;;;;;;22.98;15.13;;;;;;;;;;5091170;28;20128;-70
2021/01/20 06:48:54;;;;;;;25.98;16.08;;;;;;;;;;5097017;28;20043;-70
2021/01/20 06:51:22;;;;;;;24.80;17.63;;;;;;;;;;5090937;28;20055;-70
2021/01/20 06:54:08;;;;;;;24.95;15.95;;;;;;;;;;5092056;28;20059;-70
2021/01/20 06:56:36;;;;;;;24.65;16.85;;;;;;;;;;5097969;28;20044;-70
2021/01/20 06:59:13;;;;;;;22.27;15.52;;;;;;;;;;5090256;28;20246;-70
2021/01/20 07:01:39;;;;;;;22.52;15.77;;;;;;;;;;5094809;28;20085;-70
2021/01/20 07:04:05;;;;;;;32.22;18.45;;;;;;;;;;5099620;28;20391;-70
2021/01/20 07:06:34;;;;;;;27.52;17.90;;;;;;;;;;5092143;28;20048;-71
2021/01/20 07:09:02;;;;;;;26.92;17.10;;;;;;;;;;5090048;28;20048;-70
2021/01/20 07:11:28;;;;;;;25.23;17.77;;;;;;;;;;5095494;28;20032;-70
2021/01/20 07:13:55;;;;;;;34.65;18.90;;;;;;;;;;5078738;28;20048;-70
2021/01/20 07:16:21;;;;;;;26.23;16.70;;;;;;;;;;5074273;28;20113;-70
2021/01/20 07:18:50;;;;;;;23.27;16.40;;;;;;;;;;5076439;28;20578;-70
2021/01/20 07:21:16;;;;;;;27.48;17.58;;;;;;;;;;5073718;28;20036;-70
2021/01/20 07:23:43;;;;;;;29.95;19.20;;;;;;;;;;5076947;28;20048;-70
2021/01/20 07:26:10;;;;;;;31.48;20.98;;;;;;;;;;5071937;28;20186;-70
2021/01/20 07:28:38;;;;;;;29.90;19.20;;;;;;;;;;5075347;28;20036;-70
2021/01/20 07:31:05;;;;;;;28.90;19.73;;;;;;;;;;5078864;28;20495;-70
2021/01/20 07:33:32;;;;;;;31.77;21.25;;;;;;;;;;5089114;28;20403;-70
2021/01/20 07:36:08;;;;;;;29.45;19.02;;;;;;;;;;5071931;28;20052;-70
2021/01/20 07:38:34;;;;;;;31.35;18.88;;;;;;;;;;5062769;28;20063;-70
2021/01/20 07:41:12;;;;;;;32.75;19.83;;;;;;;;;;5064338;28;20044;-70
2021/01/20 07:43:39;;;;;;;28.55;19.10;;;;;;;;;;5073985;28;20090;-70
2021/01/20 07:46:13;;;;;;;27.77;17.92;;;;;;;;;;5079497;28;20060;-70
2021/01/20 07:48:39;;;;;;;;;;;;;;;;;;5078148;28;20078;-70
2021/01/20 07:51:05;;;;;;;28.50;18.45;;;;;;;;;;5080420;28;19924;-70
2021/01/20 07:53:32;;;;;;;27.85;19.25;;;;;;;;;;5079884;28;20105;-70
2021/01/20 07:55:58;;;;;;;29.60;16.83;;;;;;;;;;5072728;28;20058;-70
2021/01/20 07:58:26;;;;;;;22.08;15.73;;;;;;;;;;5073354;28;20125;-69
2021/01/20 08:00:52;;;;;;;25.67;17.45;;;;;;;;;;5078656;28;20043;-69
2021/01/20 08:03:32;;;;;;;25.17;16.05;;;;;;;;;;5080854;28;20046;-68
2021/01/20 08:05:58;;;;;;;23.13;14.63;;;;;;;;;;5077516;28;20059;-69
2021/01/20 08:08:25;;;;;;;22.75;15.68;;;;;;;;;;5078266;28;20444;-69
2021/01/20 08:10:55;;;;;;;26.92;16.45;;;;;;;;;;5085458;28;20117;-69
2021/01/20 08:13:22;;;;;;;28.17;15.32;;;;;;;;;;5079968;28;20040;-69
2021/01/20 08:15:48;;;;;;;24.08;15.35;;;;;;;;;;5080247;28;20067;-70
2021/01/20 08:18:16;;;;;;;26.15;16.65;;;;;;;;;;5078056;28;20110;-70
2021/01/20 08:20:42;;;;;;;19.33;13.43;;;;;;;;;;5087819;28;20127;-69
2021/01/20 08:23:15;;;;;;;25.27;15.30;;;;;;;;;;5086721;28;20036;-69
2021/01/20 08:25:41;;;;;;;21.27;15.55;;;;;;;;;;5088397;28;20101;-70
2021/01/20 08:28:12;;;;;;;26.70;16.40;;;;;;;;;;5087807;28;20036;-69
2021/01/20 08:30:38;;;;;;;22.58;15.30;;;;;;;;;;5089608;28;20175;-69
2021/01/20 08:33:05;;;;;;;22.65;16.23;;;;;;;;;;5084731;28;20041;-69
2021/01/20 08:35:36;;;;;;;21.90;15.13;;;;;;;;;;5084230;28;20075;-68
2021/01/20 08:38:03;;;;;;;24.45;15.30;;;;;;;;;;5089540;28;20040;-69
2021/01/20 08:40:29;;;;;;;23.00;14.88;;;;;;;;;;5089918;28;20052;-68
2021/01/20 08:42:55;;;;;;;20.85;15.60;;;;;;;;;;5090240;28;20044;-69
2021/01/20 08:45:23;;;;;;;20.70;14.13;;;;;;;;;;5088634;28;20076;-69
2021/01/20 08:47:51;;;;;;;21.38;13.25;;;;;;;;;;5090312;28;20044;-69
2021/01/20 08:50:18;;;;;;;20.75;14.05;;;;;;;;;;5085635;28;20048;-69
2021/01/20 08:52:46;;;;;;;21.85;13.60;;;;;;;;;;5092276;28;20036;-68
2021/01/20 08:55:27;;;;;;;21.27;13.05;;;;;;;;;;5090899;28;20047;-70
2021/01/20 08:58:11;;;;;;;19.60;13.40;;;;;;;;;;5084643;28;20050;-80
2021/01/20 09:00:40;;;;;;;20.73;12.38;;;;;;;;;;5089078;28;20050;-80
2021/01/20 09:03:16;;;;;;;22.10;13.30;;;;;;;;;;5082140;28;20182;-69
2021/01/20 09:05:42;;;;;;;18.63;12.95;;;;;;;;;;5082103;28;20044;-70
2021/01/20 09:08:09;;;;;;;18.52;12.02;;;;;;;;;;5082640;28;20098;-70
2021/01/20 09:10:36;;;;;;;15.45;11.30;;;;;;;;;;5082881;28;20044;-70
2021/01/20 09:13:02;;;;;;;15.52;11.45;;;;;;;;;;5080719;28;20145;-69
2021/01/20 09:15:29;;;;;;;19.13;11.88;;;;;;;;;;5087127;28;20040;-70
2021/01/20 09:17:55;;;;;;;17.65;11.50;;;;;;;;;;5087106;28;20157;-73
2021/01/20 09:20:22;;;;;;;18.35;11.23;;;;;;;;;;5086241;28;20461;-81
2021/01/20 09:22:49;;;;;;;16.02;9.95;;;;;;;;;;5072613;28;20045;-70
2021/01/20 09:25:16;;;;;;;14.13;10.77;;;;;;;;;;5078966;28;20128;-70
2021/01/20 09:27:43;;;;;;;17.63;11.40;;;;;;;;;;5089760;28;20044;-80
2021/01/20 09:30:10;;;;;;;14.65;9.27;;;;;;;;;;5085063;28;20082;-79
2021/01/20 09:32:37;;;;;;;16.55;9.55;;;;;;;;;;5085640;28;20135;-79
2021/01/20 09:35:07;;;;;;;15.00;10.50;;;;;;;;;;5084602;28;20056;-80
2021/01/20 09:37:34;;;;;;;14.38;10.25;;;;;;;;;;5087025;28;20083;-71
2021/01/20 09:40:00;;;;;;;12.90;9.50;;;;;;;;;;5089367;28;20051;-70
2021/01/20 09:42:27;;;;;;;13.90;8.20;;;;;;;;;;5087211;28;20036;-70
2021/01/20 09:44:53;;;;;;;12.57;7.40;;;;;;;;;;5089298;28;20051;-70
2021/01/20 09:47:20;;;;;;;16.38;9.80;;;;;;;;;;5088521;28;20404;-70
2021/01/20 09:49:47;;;;;;;12.32;8.50;;;;;;;;;;5092264;28;20036;-70
2021/01/20 09:52:15;;;;;;;13.50;8.60;;;;;;;;;;5079818;28;20092;-71
2021/01/20 09:54:42;;;;;;;16.10;8.10;;;;;;;;;;5073446;28;20035;-71
2021/01/20 09:57:09;;;;;;;12.55;8.30;;;;;;;;;;5079499;28;20488;-71
2021/01/20 09:59:36;;;;;;;10.43;7.65;;;;;;;;;;5081451;28;20112;-71
2021/01/20 10:02:02;;;;;;;10.90;7.28;;;;;;;;;;5080957;28;20389;-71
2021/01/20 10:04:29;;;;;;;11.65;7.28;;;;;;;;;;5096327;28;20098;-71
2021/01/20 10:06:56;;;;;;;11.02;7.90;;;;;;;;;;5078054;28;20144;-71
2021/01/20 10:09:22;;;;;;;8.48;6.22;;;;;;;;;;5078332;28;20111;-71
2021/01/20 10:11:49;;;;;;;12.57;5.95;;;;;;;;;;5078184;28;20147;-71
2021/01/20 10:14:17;;;;;;;12.75;6.32;;;;;;;;;;5087335;28;20052;-71
2021/01/20 10:16:46;;;;;;;9.57;6.38;;;;;;;;;;5084190;28;20132;-71
2021/01/20 10:19:13;;;;;;;8.57;5.80;;;;;;;;;;5091481;28;20495;-69
2021/01/20 10:21:40;;;;;;;14.65;7.47;;;;;;;;;;5089747;28;20074;-68
2021/01/20 10:24:07;;;;;;;9.95;5.65;;;;;;;;;;5090952;28;20132;-69
2021/01/20 10:26:33;;;;;;;9.05;5.68;;;;;;;;;;5090393;28;20059;-69
2021/01/20 10:29:00;;;;;;;12.98;6.57;;;;;;;;;;5092586;28;20040;-69
2021/01/20 10:31:30;;;;;;;11.20;5.63;;;;;;;;;;5088255;28;20055;-69
2021/01/20 10:33:56;;;;;;;9.60;5.60;;;;;;;;;;5080196;28;20063;-69
2021/01/20 10:36:23;;;;;;;10.45;5.82;;;;;;;;;;5090043;28;20051;-69
2021/01/20 10:38:49;;;;;;;7.97;4.75;;;;;;;;;;5092641;28;20039;-69
2021/01/20 10:41:18;;;;;;;6.95;4.57;;;;;;;;;;5093447;28;20133;-69
2021/01/20 10:43:44;;;;;;;8.23;4.68;;;;;;;;;;5108200;28;20047;-68
2021/01/20 10:46:10;;;;;;;8.27;4.72;;;;;;;;;;5093102;28;20089;-68
2021/01/20 10:48:37;;;;;;;9.57;4.80;;;;;;;;;;5093299;28;20043;-68
2021/01/20 10:51:04;;;;;;;7.50;4.60;;;;;;;;;;5091388;28;20464;-68
2021/01/20 10:53:30;;;;;;;7.63;4.07;;;;;;;;;;5093163;28;20396;-68
2021/01/20 10:55:56;;;;;;;8.82;4.15;;;;;;;;;;5092933;28;20040;-68
2021/01/20 10:58:23;;;;;;;7.10;4.25;;;;;;;;;;5092551;28;20039;-68
2021/01/20 11:00:50;;;;;;;8.63;4.28;;;;;;;;;;5093058;28;20039;-69
2021/01/20 11:03:16;;;;;;;6.63;4.20;;;;;;;;;;5091173;28;20383;-69
2021/01/20 11:05:43;;;;;;;8.27;4.60;;;;;;;;;;5091572;28;20044;-69
2021/01/20 11:08:09;;;;;;;8.07;4.13;;;;;;;;;;5091394;28;20160;-70
2021/01/20 11:10:37;;;;;;;9.27;4.65;;;;;;;;;;5092961;28;20048;-69
2021/01/20 11:13:07;;;;;;;9.75;4.00;;;;;;;;;;5092122;28;20044;-70
2021/01/20 11:15:35;;;;;;;6.68;4.10;;;;;;;;;;5092790;28;20068;-70
2021/01/20 11:18:02;;;;;;;6.68;3.85;;;;;;;;;;5092839;28;20036;-69
2021/01/20 11:20:28;;;;;;;7.95;3.88;;;;;;;;;;5095393;28;20063;-69
2021/01/20 11:22:54;;;;;;;8.32;4.35;;;;;;;;;;5091728;28;20047;-69
2021/01/20 11:25:20;;;;;;;6.45;3.42;;;;;;;;;;5090936;28;20040;-70
2021/01/20 11:27:47;;;;;;;8.07;3.78;;;;;;;;;;5084441;28;20044;-70
2021/01/20 11:30:13;;;;;;;6.93;3.58;;;;;;;;;;5087765;28;20086;-70
2021/01/20 11:32:40;;;;;;;8.65;3.67;;;;;;;;;;5085040;28;20082;-70
2021/01/20 11:35:06;;;;;;;6.68;3.40;;;;;;;;;;5083779;28;20032;-70
2021/01/20 11:37:33;;;;;;;6.85;3.85;;;;;;;;;;5086198;28;20454;-71
2021/01/20 11:40:03;;;;;;;10.35;3.53;;;;;;;;;;5091192;28;20135;-69
2021/01/20 11:42:30;;;;;;;8.85;3.95;;;;;;;;;;5091787;28;20087;-69
2021/01/20 11:44:57;;;;;;;7.20;4.15;;;;;;;;;;5088563;28;20032;-69
2021/01/20 11:47:23;;;;;;;7.18;3.95;;;;;;;;;;5085869;28;20453;-69
2021/01/20 11:49:51;;;;;;;7.05;3.67;;;;;;;;;;5087912;28;20444;-69
2021/01/20 11:52:17;;;;;;;5.93;3.40;;;;;;;;;;5091921;28;20071;-69
2021/01/20 11:54:44;;;;;;;6.20;3.72;;;;;;;;;;5081863;28;20044;-69
2021/01/20 11:57:11;;;;;;;6.82;3.42;;;;;;;;;;5081009;28;20071;-69
2021/01/20 11:59:38;;;;;;;7.43;3.30;;;;;;;;;;5085199;28;20089;-69
2021/01/20 12:02:04;;;;;;;8.15;3.60;;;;;;;;;;5087489;28;20085;-69
2021/01/20 12:04:31;;;;;;;5.07;3.05;;;;;;;;;;5090030;28;20442;-69
2021/01/20 12:06:57;;;;;;;7.20;3.35;;;;;;;;;;5087552;28;20048;-69
2021/01/20 12:09:24;;;;;;;7.13;3.25;;;;;;;;;;5082676;28;20057;-69
2021/01/20 12:11:51;;;;;;;5.75;3.08;;;;;;;;;;5087680;28;20048;-69
2021/01/20 12:14:17;;;;;;;5.15;3.00;;;;;;;;;;5084083;28;20055;-70
2021/01/20 12:16:44;;;;;;;5.88;3.10;;;;;;;;;;5085727;28;20036;-69
2021/01/20 12:19:11;;;;;;;5.85;2.88;;;;;;;;;;5086571;28;20357;-68
2021/01/20 12:21:38;;;;;;;5.80;3.00;;;;;;;;;;5084673;28;20051;-69
2021/01/20 12:24:05;;;;;;;7.13;3.08;;;;;;;;;;5086528;28;20170;-68
2021/01/20 12:26:32;;;;;;;7.00;2.80;;;;;;;;;;5083398;28;20094;-69
2021/01/20 12:28:59;;;;;;;4.63;2.70;;;;;;;;;;5086710;28;20075;-69
2021/01/20 12:31:26;;;;;;;5.15;2.38;;;;;;;;;;5082697;28;20419;-68
2021/01/20 12:33:52;;;;;;;6.28;2.60;;;;;;;;;;5076838;28;20040;-69
2021/01/20 12:36:21;;;;;;;9.35;3.10;;;;;;;;;;5086530;28;20047;-69
2021/01/20 12:38:47;;;;;;;8.15;2.72;;;;;;;;;;5091449;28;20134;-69
2021/01/20 12:41:13;;;;;;;5.65;2.78;;;;;;;;;;5091000;28;20488;-69
2021/01/20 12:43:40;;;;;;;5.18;2.60;;;;;;;;;;5098682;28;20522;-68
2021/01/20 12:46:06;;;;;;;4.80;2.50;;;;;;;;;;5091569;28;20052;-69
2021/01/20 12:48:32;;;;;;;5.30;2.72;;;;;;;;;;5105645;28;20093;-69
2021/01/20 12:50:59;;;;;;;9.80;3.05;;;;;;;;;;5090226;28;20059;-69
2021/01/20 12:53:26;;;;;;;8.60;3.22;;;;;;;;;;5090725;28;20462;-69
2021/01/20 12:55:52;;;;;;;5.47;2.70;;;;;;;;;;5089897;28;20100;-69
2021/01/20 12:58:19;;;;;;;7.68;2.83;;;;;;;;;;5089335;28;20047;-69
2021/01/20 13:00:45;;;;;;;6.90;2.30;;;;;;;;;;5089667;28;20409;-70
2021/01/20 13:03:12;;;;;;;7.35;3.22;;;;;;;;;;5089595;28;20069;-70
2021/01/20 13:05:38;;;;;;;4.70;2.58;;;;;;;;;;5074145;28;20409;-70
2021/01/20 13:08:04;;;;;;;6.80;2.40;;;;;;;;;;5089708;28;20040;-70
2021/01/20 13:10:31;;;;;;;5.57;2.30;;;;;;;;;;5081196;28;20067;-69
2021/01/20 13:12:57;;;;;;;6.82;2.70;;;;;;;;;;5079551;28;20048;-70
2021/01/20 13:15:25;;;;;;;5.78;2.42;;;;;;;;;;5084201;28;20036;-76
2021/01/20 13:17:53;;;;;;;5.78;2.65;;;;;;;;;;5097183;28;20028;-77
2021/01/20 13:20:20;;;;;;;5.57;2.40;;;;;;;;;;5082589;28;20032;-77
2021/01/20 13:22:46;;;;;;;6.22;2.83;;;;;;;;;;5081656;28;20182;-76
2021/01/20 13:25:15;;;;;;;6.07;2.53;;;;;;;;;;5081349;28;20044;-75
2021/01/20 13:27:41;;;;;;;7.20;2.80;;;;;;;;;;5089625;28;20043;-77
2021/01/20 13:30:08;;;;;;;7.57;2.78;;;;;;;;;;5081816;28;20040;-77
2021/01/20 13:32:34;;;;;;;6.25;2.50;;;;;;;;;;5079536;28;20071;-76
2021/01/20 13:35:01;;;;;;;5.68;2.50;;;;;;;;;;5084202;28;20040;-76
2021/01/20 13:37:27;;;;;;;9.20;2.80;;;;;;;;;;5078301;28;20189;-77
2021/01/20 13:39:54;;;;;;;4.90;2.60;;;;;;;;;;5086216;28;20075;-76
2021/01/20 13:42:20;;;;;;;7.20;2.90;;;;;;;;;;5090651;28;20116;-76
2021/01/20 13:44:47;;;;;;;4.20;2.22;;;;;;;;;;5082005;28;20229;-76
2021/01/20 13:47:13;;;;;;;8.40;3.08;;;;;;;;;;5073920;28;20464;-77
2021/01/20 13:49:40;;;;;;;6.70;3.05;;;;;;;;;;5079191;28;20036;-67
2021/01/20 13:52:06;;;;;;;6.68;3.10;;;;;;;;;;5074233;28;20033;-67
2021/01/20 13:54:33;;;;;;;6.03;3.08;;;;;;;;;;5082260;28;20149;-67
2021/01/20 13:57:01;;;;;;;5.78;3.30;;;;;;;;;;5075300;28;20052;-67
2021/01/20 13:59:27;;;;;;;6.57;2.85;;;;;;;;;;5078613;28;20504;-67
2021/01/20 14:01:54;;;;;;;6.60;2.90;;;;;;;;;;5077643;28;20037;-67
2021/01/20 14:04:21;;;;;;;5.50;2.75;;;;;;;;;;5079976;28;20041;-71
2021/01/20 14:06:47;;;;;;;6.18;2.72;;;;;;;;;;5076262;28;20523;-67
2021/01/20 14:09:13;;;;;;;6.35;3.25;;;;;;;;;;5073964;28;20443;-66
2021/01/20 14:11:40;;;;;;;8.13;3.15;;;;;;;;;;5078820;28;20055;-65
2021/01/20 14:14:06;;;;;;;6.38;3.28;;;;;;;;;;5073579;28;20457;-81
2021/01/20 14:16:35;;;;;;;6.40;3.00;;;;;;;;;;5080953;28;20055;-66
2021/01/20 14:19:02;;;;;;;5.40;2.78;;;;;;;;;;5082145;28;20040;-66
2021/01/20 14:21:28;;;;;;;6.43;2.88;;;;;;;;;;5078457;28;20042;-66
2021/01/20 14:23:55;;;;;;;7.28;3.05;;;;;;;;;;5075397;28;20048;-67
2021/01/20 14:26:22;;;;;;;6.93;2.80;;;;;;;;;;5074869;28;20055;-66
2021/01/20 14:28:48;;;;;;;5.57;2.95;;;;;;;;;;5081711;28;20491;-67